createdAt,value
2022-11-30T00:01:00.103Z,14.40
2022-11-30T00:03:27.046Z,14.40
2022-11-30T00:05:53.963Z,14.40
2022-11-30T00:08:20.796Z,14.40
2022-11-30T00:10:47.536Z,14.40
2022-11-30T00:13:14.495Z,14.40
2022-11-30T00:15:41.311Z,14.40
2022-11-30T00:18:08.104Z,14.40
2022-11-30T00:20:34.954Z,14.40
2022-11-30T00:23:01.797Z,14.40
2022-11-30T00:25:31.597Z,14.40
2022-11-30T00:28:00.456Z,14.50
2022-11-30T00:30:27.305Z,14.40
2022-11-30T00:32:58.091Z,14.40
2022-11-30T00:35:24.978Z,14.40
2022-11-30T00:37:51.783Z,14.40
2022-11-30T00:40:18.621Z,14.40
2022-11-30T00:42:45.422Z,14.40
2022-11-30T00:45:12.186Z,14.40
2022-11-30T00:47:39.045Z,14.50
2022-11-30T00:50:06.473Z,14.50
2022-11-30T00:52:33.281Z,14.50
2022-11-30T00:55:03.905Z,14.40
2022-11-30T00:57:31.103Z,14.40
2022-11-30T00:59:57.912Z,14.50
2022-11-30T01:02:24.725Z,14.50
2022-11-30T01:04:51.807Z,14.50
2022-11-30T01:07:18.582Z,14.50
2022-11-30T01:09:45.357Z,14.50
2022-11-30T01:12:12.151Z,14.50
2022-11-30T01:14:38.949Z,14.50
2022-11-30T01:17:06.043Z,14.50
2022-11-30T01:19:32.855Z,14.50
2022-11-30T01:21:59.664Z,14.50
2022-11-30T01:24:26.439Z,14.50
2022-11-30T01:26:53.223Z,14.50
2022-11-30T01:29:20.078Z,14.50
2022-11-30T01:31:46.919Z,14.50
2022-11-30T01:34:13.815Z,14.50
2022-11-30T01:36:44.009Z,14.50
2022-11-30T01:39:11.004Z,14.50
2022-11-30T01:41:38.427Z,14.50
2022-11-30T01:44:05.205Z,14.50
2022-11-30T01:46:35.529Z,14.50
2022-11-30T01:49:05.549Z,14.50
2022-11-30T01:51:58.685Z,14.50
2022-11-30T01:54:36.571Z,14.50
2022-11-30T01:57:13.601Z,14.50
2022-11-30T01:59:40.864Z,14.50
2022-11-30T02:02:07.963Z,14.50
2022-11-30T02:04:36.918Z,14.50
2022-11-30T02:07:05.736Z,14.50
2022-11-30T02:09:40.349Z,14.40
2022-11-30T02:12:11.931Z,14.50
2022-11-30T02:14:51.111Z,14.40
2022-11-30T02:17:32.217Z,14.50
2022-11-30T02:20:20.540Z,14.40
2022-11-30T02:23:29.653Z,14.40
2022-11-30T02:26:34.837Z,14.40
2022-11-30T02:29:25.414Z,14.40
2022-11-30T02:31:55.711Z,14.40
2022-11-30T02:34:27.726Z,14.30
2022-11-30T02:36:56.418Z,14.30
2022-11-30T02:39:23.458Z,14.30
2022-11-30T02:41:50.519Z,14.30
2022-11-30T02:44:17.803Z,14.30
2022-11-30T02:47:16.249Z,14.40
2022-11-30T02:50:00.419Z,14.40
2022-11-30T02:52:29.619Z,14.30
2022-11-30T02:55:04.529Z,14.40
2022-11-30T02:57:31.298Z,14.40
2022-11-30T02:59:59.895Z,14.40
2022-11-30T03:02:27.204Z,14.40
2022-11-30T03:04:53.998Z,14.40
2022-11-30T03:07:20.896Z,14.40
2022-11-30T03:09:47.757Z,14.30
2022-11-30T03:12:14.618Z,14.30
2022-11-30T03:14:41.448Z,14.30
2022-11-30T03:17:08.571Z,14.30
2022-11-30T03:19:35.393Z,14.20
2022-11-30T03:22:02.177Z,14.20
2022-11-30T03:24:28.992Z,14.20
2022-11-30T03:26:55.830Z,14.20
2022-11-30T03:29:22.591Z,14.20
2022-11-30T03:31:49.357Z,14.20
2022-11-30T03:34:16.108Z,14.20
2022-11-30T03:36:42.920Z,14.20
2022-11-30T03:39:09.830Z,14.20
2022-11-30T03:41:36.931Z,14.20
2022-11-30T03:44:03.765Z,14.20
2022-11-30T03:46:30.637Z,14.20
2022-11-30T03:48:57.515Z,14.20
2022-11-30T03:51:24.336Z,14.20
2022-11-30T03:53:51.199Z,14.20
2022-11-30T03:56:18.006Z,14.20
2022-11-30T03:58:44.831Z,14.10
2022-11-30T04:01:19.344Z,14.10
2022-11-30T04:03:46.229Z,14.10
2022-11-30T04:06:13.245Z,14.00
2022-11-30T04:08:40.595Z,14.00
2022-11-30T04:11:08.601Z,14.10
2022-11-30T04:13:36.831Z,14.10
2022-11-30T04:16:04.934Z,14.10
2022-11-30T04:18:33.523Z,14.10
2022-11-30T04:21:01.354Z,14.10
2022-11-30T04:23:34.098Z,14.20
2022-11-30T04:26:09.008Z,14.20
2022-11-30T04:28:35.963Z,14.20
2022-11-30T04:31:03.175Z,14.10
2022-11-30T04:33:30.558Z,14.00
2022-11-30T04:35:59.962Z,14.00
2022-11-30T04:38:27.195Z,14.00
2022-11-30T04:40:54.479Z,14.00
2022-11-30T04:43:21.774Z,13.90
2022-11-30T04:45:49.143Z,13.90
2022-11-30T04:48:17.581Z,13.90
2022-11-30T04:50:44.820Z,13.90
2022-11-30T04:53:12.683Z,13.90
2022-11-30T04:55:39.771Z,13.90
2022-11-30T04:58:07.320Z,13.90
2022-11-30T05:00:35.175Z,14.00
2022-11-30T05:03:02.278Z,13.90
2022-11-30T05:05:29.316Z,14.00
2022-11-30T05:07:58.200Z,14.00
2022-11-30T05:10:26.564Z,14.10
2022-11-30T05:12:53.363Z,14.00
2022-11-30T05:15:20.512Z,14.10
2022-11-30T05:17:47.296Z,14.10
2022-11-30T05:20:14.436Z,14.10
2022-11-30T05:22:41.469Z,14.10
2022-11-30T05:25:09.328Z,14.10
2022-11-30T05:27:36.704Z,14.10
2022-11-30T05:30:03.953Z,14.10
2022-11-30T05:32:30.739Z,14.10
2022-11-30T05:34:57.958Z,14.10
2022-11-30T05:37:25.210Z,14.10
2022-11-30T05:39:52.115Z,14.10
2022-11-30T05:42:18.939Z,14.10
2022-11-30T05:44:46.072Z,14.10
2022-11-30T05:47:13.265Z,14.10
2022-11-30T05:49:40.030Z,14.10
2022-11-30T05:52:06.885Z,14.10
2022-11-30T05:54:34.443Z,14.10
2022-11-30T05:57:01.499Z,14.20
2022-11-30T05:59:31.345Z,14.20
2022-11-30T06:01:58.299Z,14.20
2022-11-30T06:04:25.301Z,14.20
2022-11-30T06:06:55.583Z,14.20
2022-11-30T06:09:23.086Z,14.10
2022-11-30T06:11:50.008Z,14.10
2022-11-30T06:14:17.162Z,14.10
2022-11-30T06:16:44.009Z,14.10
2022-11-30T06:19:10.981Z,14.10
2022-11-30T06:21:37.783Z,14.10
2022-11-30T06:24:04.757Z,14.10
2022-11-30T06:26:31.647Z,14.10
2022-11-30T06:28:58.427Z,14.10
2022-11-30T06:31:25.384Z,14.10
2022-11-30T06:33:52.240Z,14.10
2022-11-30T06:36:23.241Z,14.10
2022-11-30T06:38:50.786Z,14.10
2022-11-30T06:41:18.273Z,14.10
2022-11-30T06:43:45.114Z,14.10
2022-11-30T06:46:11.985Z,14.10
2022-11-30T06:48:38.946Z,14.00
2022-11-30T06:51:07.510Z,14.00
2022-11-30T06:53:34.504Z,14.00
2022-11-30T06:56:10.637Z,14.00
2022-11-30T06:58:41.595Z,14.00
2022-11-30T07:01:10.786Z,14.00
2022-11-30T07:03:38.049Z,14.00
2022-11-30T07:06:14.924Z,14.00
2022-11-30T07:08:43.182Z,14.00
2022-11-30T07:11:11.411Z,14.00
2022-11-30T07:13:38.729Z,14.00
2022-11-30T07:16:10.683Z,14.00
2022-11-30T07:18:37.570Z,14.00
2022-11-30T07:21:05.601Z,14.00
2022-11-30T07:23:56.349Z,14.00
2022-11-30T07:26:24.671Z,14.00
2022-11-30T07:28:55.216Z,14.00
2022-11-30T07:31:25.647Z,14.00
2022-11-30T07:33:52.853Z,14.00
2022-11-30T07:36:21.968Z,14.00
2022-11-30T07:38:49.530Z,14.00
2022-11-30T07:41:16.455Z,13.90
2022-11-30T07:43:43.591Z,13.90
2022-11-30T07:46:15.570Z,13.80
2022-11-30T07:48:43.970Z,13.80
2022-11-30T07:51:14.771Z,13.80
2022-11-30T07:53:42.012Z,13.80
2022-11-30T07:56:12.096Z,13.80
2022-11-30T07:58:39.055Z,13.80
2022-11-30T08:01:08.627Z,13.80
2022-11-30T08:03:37.268Z,13.80
2022-11-30T08:06:07.427Z,13.80
2022-11-30T08:08:37.568Z,13.80
2022-11-30T08:11:05.591Z,13.90
2022-11-30T08:13:32.766Z,13.90
2022-11-30T08:16:08.259Z,14.00
2022-11-30T08:18:35.816Z,14.00
2022-11-30T08:21:04.768Z,14.00
2022-11-30T08:23:34.132Z,13.90
2022-11-30T08:26:06.656Z,13.90
2022-11-30T08:28:37.261Z,13.90
2022-11-30T08:31:14.842Z,13.90
2022-11-30T08:33:42.189Z,13.90
2022-11-30T08:36:18.334Z,13.80
2022-11-30T08:38:46.440Z,13.90
2022-11-30T08:41:15.628Z,13.90
2022-11-30T08:43:42.949Z,13.90
2022-11-30T08:46:42.727Z,14.00
2022-11-30T08:49:19.762Z,14.00
2022-11-30T08:54:33.037Z,14.10
2022-11-30T08:56:59.914Z,14.10
2022-11-30T08:59:26.700Z,14.10
2022-11-30T09:01:53.604Z,14.10
2022-11-30T09:04:20.394Z,14.10
2022-11-30T09:06:47.242Z,14.10
2022-11-30T09:09:14.018Z,14.20
2022-11-30T09:11:41.320Z,14.20
2022-11-30T09:14:12.683Z,14.10
2022-11-30T09:16:39.762Z,14.20
2022-11-30T09:19:06.621Z,14.10
2022-11-30T09:21:33.451Z,14.10
2022-11-30T09:24:00.296Z,14.20
2022-11-30T09:26:27.263Z,14.20
2022-11-30T09:28:54.727Z,14.20
2022-11-30T09:31:24.046Z,14.30
2022-11-30T09:33:51.985Z,14.30
2022-11-30T09:36:21.218Z,14.30
2022-11-30T09:38:48.720Z,14.30
2022-11-30T09:41:24.520Z,14.40
2022-11-30T09:44:12.602Z,14.30
2022-11-30T09:46:51.543Z,14.40
2022-11-30T09:49:23.677Z,14.40
2022-11-30T09:51:54.419Z,14.40
2022-11-30T09:54:35.583Z,14.40
2022-11-30T09:57:34.670Z,14.40
2022-11-30T10:00:10.424Z,14.40
2022-11-30T10:02:38.769Z,14.40
2022-11-30T10:05:16.454Z,14.40
2022-11-30T10:07:55.332Z,14.30
2022-11-30T10:10:53.644Z,14.30
2022-11-30T10:13:54.384Z,14.30
2022-11-30T10:16:42.278Z,14.20
2022-11-30T10:19:31.654Z,14.20
2022-11-30T10:22:27.883Z,14.30
2022-11-30T10:25:14.453Z,14.30
2022-11-30T10:28:17.987Z,14.40
2022-11-30T10:30:50.129Z,14.40
2022-11-30T10:33:19.835Z,14.40
2022-11-30T10:36:01.638Z,14.50
2022-11-30T10:38:36.915Z,14.50
2022-11-30T10:41:21.526Z,14.50
2022-11-30T10:44:12.345Z,14.50
2022-11-30T10:46:53.216Z,14.50
2022-11-30T10:49:20.691Z,14.50
2022-11-30T10:51:54.055Z,14.50
2022-11-30T10:54:22.666Z,14.50
2022-11-30T10:56:49.891Z,14.50
2022-11-30T10:59:24.832Z,14.50
2022-11-30T11:01:53.463Z,14.60
2022-11-30T11:04:25.443Z,14.60
2022-11-30T11:06:58.728Z,14.60
2022-11-30T11:09:37.546Z,14.70
2022-11-30T11:12:24.592Z,14.70
2022-11-30T11:15:08.747Z,14.70
2022-11-30T11:17:35.554Z,14.70
2022-11-30T11:20:26.501Z,14.80
2022-11-30T11:22:53.533Z,14.80
2022-11-30T11:25:31.344Z,14.70
2022-11-30T11:28:14.118Z,14.80
2022-11-30T11:30:41.573Z,14.80
2022-11-30T11:33:11.947Z,14.80
2022-11-30T11:35:45.936Z,14.80
2022-11-30T11:38:24.008Z,14.80
2022-11-30T11:40:56.533Z,14.80
2022-11-30T11:43:25.585Z,14.80
2022-11-30T11:45:56.240Z,14.80
2022-11-30T11:48:39.368Z,14.80
2022-11-30T11:51:09.219Z,14.80
2022-11-30T11:53:53.540Z,14.90
2022-11-30T11:56:28.545Z,14.80
2022-11-30T11:59:07.639Z,14.80
2022-11-30T12:02:05.883Z,14.90
2022-11-30T12:05:17.060Z,14.80
2022-11-30T12:08:05.625Z,14.80
2022-11-30T12:10:52.254Z,14.90
2022-11-30T12:13:32.448Z,14.90
2022-11-30T12:16:05.232Z,14.90
2022-11-30T12:19:11.830Z,15.00
2022-11-30T12:22:19.215Z,15.00
2022-11-30T12:25:07.564Z,15.00
2022-11-30T12:27:53.543Z,15.10
2022-11-30T12:30:27.431Z,15.10
2022-11-30T12:33:25.329Z,15.10
2022-11-30T12:36:23.446Z,15.20
2022-11-30T12:39:09.838Z,15.10
2022-11-30T12:41:57.422Z,15.10
2022-11-30T12:44:42.416Z,15.10
2022-11-30T12:47:47.430Z,15.10
2022-11-30T12:50:41.903Z,15.10
2022-11-30T12:53:33.608Z,15.10
2022-11-30T12:56:16.079Z,15.10
2022-11-30T12:58:55.969Z,15.10
2022-11-30T13:01:38.029Z,15.10
2022-11-30T13:04:51.943Z,15.10
2022-11-30T13:07:33.612Z,15.10
2022-11-30T13:10:29.887Z,15.10
2022-11-30T13:12:57.477Z,15.20
2022-11-30T13:15:27.767Z,15.20
2022-11-30T13:17:55.861Z,15.20
2022-11-30T13:20:31.578Z,15.20
2022-11-30T13:23:05.411Z,15.20
2022-11-30T13:26:09.692Z,15.20
2022-11-30T13:28:42.926Z,15.20
2022-11-30T13:31:25.294Z,15.30
2022-11-30T13:33:55.235Z,15.30
2022-11-30T13:36:22.132Z,15.30
2022-11-30T13:39:14.327Z,15.30
2022-11-30T13:41:43.795Z,15.30
2022-11-30T13:44:31.869Z,15.30
2022-11-30T13:47:01.037Z,15.20
2022-11-30T13:49:36.302Z,15.30
2022-11-30T13:54:54.590Z,15.30
2022-11-30T13:57:24.647Z,15.30
2022-11-30T13:59:59.388Z,15.30
2022-11-30T14:02:43.993Z,15.30
2022-11-30T14:05:16.955Z,15.30
2022-11-30T14:07:49.827Z,15.30
2022-11-30T14:10:39.292Z,15.40
2022-11-30T14:13:30.773Z,15.40
2022-11-30T14:16:00.555Z,15.30
2022-11-30T14:18:32.967Z,15.30
2022-11-30T14:21:38.336Z,15.30
2022-11-30T14:24:17.942Z,15.20
2022-11-30T14:26:48.239Z,15.20
2022-11-30T14:29:35.675Z,15.20
2022-11-30T14:32:11.629Z,15.20
2022-11-30T14:34:43.866Z,15.20
2022-11-30T14:37:23.945Z,15.20
2022-11-30T14:39:55.873Z,15.20
2022-11-30T14:42:25.984Z,15.20
2022-11-30T14:44:53.718Z,15.20
2022-11-30T14:47:29.893Z,15.20
2022-11-30T14:49:59.589Z,15.20
2022-11-30T14:52:38.407Z,15.10
2022-11-30T14:55:15.162Z,15.10
2022-11-30T14:57:51.726Z,15.10
2022-11-30T15:00:20.679Z,15.10
2022-11-30T15:02:48.786Z,15.00
2022-11-30T15:05:27.281Z,15.00
2022-11-30T15:07:54.374Z,15.00
2022-11-30T15:10:32.986Z,15.00
2022-11-30T15:13:02.208Z,15.00
2022-11-30T15:15:31.205Z,15.00
2022-11-30T15:18:08.114Z,15.00
2022-11-30T15:20:43.134Z,15.00
2022-11-30T15:23:14.194Z,15.00
2022-11-30T15:25:57.747Z,15.00
2022-11-30T15:28:31.281Z,15.00
2022-11-30T15:31:01.913Z,14.90
2022-11-30T15:33:51.627Z,14.80
2022-11-30T15:36:32.495Z,14.70
2022-11-30T15:39:04.144Z,14.70
2022-11-30T15:41:33.569Z,14.60
2022-11-30T15:44:02.304Z,14.60
2022-11-30T15:46:45.809Z,14.60
2022-11-30T15:49:18.262Z,14.60
2022-11-30T15:51:47.018Z,14.50
2022-11-30T15:54:14.011Z,14.50
2022-11-30T15:56:40.817Z,14.40
2022-11-30T15:59:28.994Z,14.40
2022-11-30T16:02:16.544Z,14.50
2022-11-30T16:04:58.569Z,14.40
2022-11-30T16:07:30.710Z,14.40
2022-11-30T16:10:26.996Z,14.40
2022-11-30T16:12:55.295Z,14.40
2022-11-30T16:15:30.644Z,14.40
2022-11-30T16:18:00.702Z,14.40
2022-11-30T16:20:27.545Z,14.30
2022-11-30T16:22:54.383Z,14.30
2022-11-30T16:25:24.899Z,14.30
2022-11-30T16:27:52.567Z,14.30
2022-11-30T16:30:23.723Z,14.30
2022-11-30T16:32:50.918Z,14.30
2022-11-30T16:35:30.449Z,14.30
2022-11-30T16:37:57.224Z,14.40
2022-11-30T16:40:24.135Z,14.40
2022-11-30T16:42:51.788Z,14.40
2022-11-30T16:45:24.603Z,14.40
2022-11-30T16:47:52.280Z,14.40
2022-11-30T16:50:19.771Z,14.40
2022-11-30T16:52:46.924Z,14.40
2022-11-30T16:55:16.497Z,14.40
2022-11-30T16:57:43.393Z,14.40
2022-11-30T17:00:16.840Z,14.40
2022-11-30T17:02:48.529Z,14.50
2022-11-30T17:05:16.213Z,14.40
2022-11-30T17:07:43.927Z,14.40
2022-11-30T17:10:11.644Z,14.40
2022-11-30T17:12:38.905Z,14.40
2022-11-30T17:15:06.458Z,14.40
2022-11-30T17:17:33.215Z,14.50
2022-11-30T17:19:59.987Z,14.40
2022-11-30T17:22:26.760Z,14.40
2022-11-30T17:24:53.647Z,14.50
2022-11-30T17:27:20.424Z,14.50
2022-11-30T17:29:47.312Z,14.50
2022-11-30T17:32:14.138Z,14.50
2022-11-30T17:34:40.907Z,14.50
2022-11-30T17:37:07.777Z,14.50
2022-11-30T17:39:36.675Z,14.40
2022-11-30T17:42:03.553Z,14.40
2022-11-30T17:44:30.339Z,14.40
2022-11-30T17:46:57.181Z,14.30
2022-11-30T17:49:23.966Z,14.20
2022-11-30T17:51:50.828Z,14.20
2022-11-30T17:54:17.637Z,14.20
2022-11-30T17:56:44.509Z,14.10
2022-11-30T17:59:11.391Z,14.10
2022-11-30T18:01:38.380Z,14.10
2022-11-30T18:04:05.301Z,14.10
2022-11-30T18:06:32.185Z,14.10
2022-11-30T18:08:59.160Z,14.10
2022-11-30T18:11:26.699Z,14.10
2022-11-30T18:13:55.867Z,14.10
2022-11-30T18:16:25.202Z,14.10
2022-11-30T18:18:52.981Z,14.10
2022-11-30T18:21:22.188Z,14.10
2022-11-30T18:23:49.891Z,14.10
2022-11-30T18:26:20.212Z,14.00
2022-11-30T18:28:51.906Z,14.00
2022-11-30T18:31:18.865Z,13.90
2022-11-30T18:33:45.832Z,13.90
2022-11-30T18:36:12.650Z,13.90
2022-11-30T18:38:41.536Z,13.80
2022-11-30T18:41:08.377Z,13.80
2022-11-30T18:43:37.088Z,13.70
2022-11-30T18:46:05.842Z,13.70
2022-11-30T18:48:32.730Z,13.70
2022-11-30T18:50:59.830Z,13.60
2022-11-30T18:53:26.651Z,13.60
2022-11-30T18:55:53.450Z,13.50
2022-11-30T18:58:20.241Z,13.50
2022-11-30T19:00:47.045Z,13.50
2022-11-30T19:03:13.879Z,13.40
2022-11-30T19:05:40.902Z,13.40
2022-11-30T19:08:11.389Z,13.40
2022-11-30T19:10:39.710Z,13.30
2022-11-30T19:13:07.195Z,13.30
2022-11-30T19:15:41.477Z,13.30
2022-11-30T19:18:10.365Z,13.20
2022-11-30T19:20:40.832Z,13.20
2022-11-30T19:23:07.912Z,13.20
2022-11-30T19:25:34.825Z,13.20
2022-11-30T19:28:01.708Z,13.20
2022-11-30T19:30:28.594Z,13.20
2022-11-30T19:32:55.435Z,13.10
2022-11-30T19:35:23.144Z,13.10
2022-11-30T19:37:52.152Z,13.10
2022-11-30T19:40:19.264Z,13.10
2022-11-30T19:42:46.100Z,13.10
2022-11-30T19:45:12.957Z,13.10
2022-11-30T19:47:39.741Z,13.10
2022-11-30T19:50:07.123Z,13.10
2022-11-30T19:52:33.941Z,13.10
2022-11-30T19:55:00.716Z,13.10
2022-11-30T19:57:27.485Z,13.10
2022-11-30T19:59:54.310Z,13.20
2022-11-30T20:02:21.258Z,13.20
2022-11-30T20:04:48.457Z,13.20
2022-11-30T20:07:15.598Z,13.30
2022-11-30T20:09:42.386Z,13.30
2022-11-30T20:12:09.168Z,13.30
2022-11-30T20:14:36.856Z,13.30
2022-11-30T20:17:04.145Z,13.30
2022-11-30T20:19:31.698Z,13.30
2022-11-30T20:21:59.277Z,13.40
2022-11-30T20:24:26.452Z,13.40
2022-11-30T20:26:53.368Z,13.40
2022-11-30T20:29:20.201Z,13.40
2022-11-30T20:31:48.744Z,13.50
2022-11-30T20:34:17.110Z,13.50
2022-11-30T20:36:45.208Z,13.50
2022-11-30T20:39:12.158Z,13.50
2022-11-30T20:41:39.012Z,13.60
2022-11-30T20:44:06.201Z,13.60
2022-11-30T20:46:35.268Z,13.60
2022-11-30T20:49:04.252Z,13.70
2022-11-30T20:51:34.625Z,13.70
2022-11-30T20:54:07.040Z,13.70
2022-11-30T20:56:37.865Z,13.80
2022-11-30T20:59:07.035Z,13.80
2022-11-30T21:01:34.519Z,13.80
2022-11-30T21:04:01.611Z,13.80
2022-11-30T21:06:31.821Z,13.80
2022-11-30T21:08:59.279Z,13.80
2022-11-30T21:11:27.553Z,13.80
2022-11-30T21:13:54.576Z,13.80
2022-11-30T21:16:28.168Z,13.80
2022-11-30T21:18:57.630Z,13.80
2022-11-30T21:21:25.981Z,13.80
2022-11-30T21:23:53.279Z,13.80
2022-11-30T21:26:29.595Z,13.80
2022-11-30T21:29:14.038Z,13.90
2022-11-30T21:31:41.319Z,13.90
2022-11-30T21:34:08.612Z,13.90
2022-11-30T21:36:35.628Z,13.90
2022-11-30T21:39:06.646Z,13.90
2022-11-30T21:41:35.389Z,13.90
2022-11-30T21:44:02.973Z,13.90
2022-11-30T21:46:30.176Z,13.90
2022-11-30T21:48:57.098Z,13.90
2022-11-30T21:51:25.899Z,13.90
2022-11-30T21:53:58.487Z,13.80
2022-11-30T21:56:28.184Z,13.80
2022-11-30T21:58:55.636Z,13.80
2022-11-30T22:01:28.016Z,13.70
2022-11-30T22:03:56.285Z,13.70
2022-11-30T22:06:24.901Z,13.70
2022-11-30T22:08:52.247Z,13.60
2022-11-30T22:11:21.866Z,13.50
2022-11-30T22:13:55.460Z,13.50
2022-11-30T22:16:24.550Z,13.50
2022-11-30T22:18:56.171Z,13.50
2022-11-30T22:21:30.960Z,13.40
2022-11-30T22:24:10.200Z,13.40
2022-11-30T22:26:42.240Z,13.40
2022-11-30T22:29:16.203Z,13.40
2022-11-30T22:31:45.506Z,13.40
2022-11-30T22:34:12.621Z,13.40
2022-11-30T22:36:41.165Z,13.40
2022-11-30T22:39:17.132Z,13.30
2022-11-30T22:41:45.407Z,13.30
2022-11-30T22:44:14.877Z,13.30
2022-11-30T22:46:43.997Z,13.30
2022-11-30T22:49:19.880Z,13.20
2022-11-30T22:51:47.497Z,13.20
2022-11-30T22:54:14.346Z,13.20
2022-11-30T22:56:41.712Z,13.20
2022-11-30T22:59:11.731Z,13.20
2022-11-30T23:01:47.439Z,13.30
2022-11-30T23:04:16.944Z,13.30
2022-11-30T23:06:44.657Z,13.30
2022-11-30T23:09:14.377Z,13.30
2022-11-30T23:11:41.645Z,13.30
2022-11-30T23:14:09.618Z,13.30
2022-11-30T23:16:37.171Z,13.30
2022-11-30T23:19:04.760Z,13.30
2022-11-30T23:21:40.347Z,13.30
2022-11-30T23:24:11.977Z,13.40
2022-11-30T23:26:39.539Z,13.40
2022-11-30T23:29:09.684Z,13.40
2022-11-30T23:31:38.538Z,13.40
2022-11-30T23:34:11.811Z,13.40
2022-11-30T23:36:38.805Z,13.40
2022-11-30T23:39:12.455Z,13.30
2022-11-30T23:41:39.846Z,13.40
2022-11-30T23:44:07.601Z,13.30
2022-11-30T23:46:35.221Z,13.30
2022-11-30T23:49:02.386Z,13.40
2022-11-30T23:51:29.219Z,13.40
2022-11-30T23:53:56.365Z,13.40
2022-11-30T23:56:24.094Z,13.40
2022-11-30T23:58:51.626Z,13.50
